createdAt,value
2023-02-27T00:06:51.044Z,-0.27
2023-02-27T00:26:51.033Z,-0.33
2023-02-27T00:46:51.027Z,-0.36
2023-02-27T01:06:51.033Z,-0.28
2023-02-27T01:26:51.035Z,-0.21
2023-02-27T01:46:51.051Z,-0.30
2023-02-27T02:06:51.032Z,-0.29
2023-02-27T02:26:51.021Z,-0.22
2023-02-27T02:46:51.018Z,-0.23
2023-02-27T03:06:51.077Z,-0.28
2023-02-27T03:26:51.021Z,-0.29
2023-02-27T03:46:51.027Z,-0.28
2023-02-27T04:06:51.006Z,-0.27
2023-02-27T04:26:51.017Z,-0.29
2023-02-27T04:46:51.010Z,-0.31
2023-02-27T05:06:51.019Z,-0.42
2023-02-27T05:26:51.015Z,-0.36
2023-02-27T05:46:51.027Z,-0.43
2023-02-27T06:06:51.024Z,-0.45
2023-02-27T06:26:51.043Z,-0.43
2023-02-27T06:46:51.024Z,-0.36
2023-02-27T07:06:51.020Z,-0.29
2023-02-27T07:26:50.998Z,-0.18
2023-02-27T07:46:51.027Z,-0.11
2023-02-27T08:06:51.034Z,-0.06
2023-02-27T08:26:51.017Z,0.06
2023-02-27T08:46:50.998Z,0.13
2023-02-27T09:06:51.001Z,0.35
2023-02-27T09:26:51.010Z,0.47
2023-02-27T09:46:51.007Z,0.49
2023-02-27T10:06:51.042Z,0.49
2023-02-27T10:26:50.999Z,0.59
2023-02-27T10:46:51.001Z,0.75
2023-02-27T11:06:50.999Z,0.73
2023-02-27T11:26:50.983Z,0.81
2023-02-27T11:46:50.990Z,0.71
2023-02-27T12:06:50.995Z,0.82
2023-02-27T12:26:50.968Z,0.82
2023-02-27T12:46:50.986Z,0.95
2023-02-27T13:06:50.993Z,1.04
2023-02-27T13:26:50.981Z,1.04
2023-02-27T13:46:50.972Z,1.05
2023-02-27T14:06:50.965Z,1.11
2023-02-27T14:26:50.973Z,1.13
2023-02-27T14:46:51.032Z,1.03
2023-02-27T15:06:50.961Z,0.90
2023-02-27T15:26:50.954Z,0.82
2023-02-27T15:46:50.961Z,0.81
2023-02-27T16:06:50.950Z,0.67
2023-02-27T16:26:50.948Z,0.61
2023-02-27T16:46:50.937Z,0.46
2023-02-27T17:06:50.937Z,0.35
2023-02-27T17:26:50.948Z,0.41
2023-02-27T17:46:50.948Z,0.32
2023-02-27T18:06:50.940Z,0.28
2023-02-27T18:26:50.950Z,0.24
2023-02-27T18:46:50.929Z,0.12
2023-02-27T19:06:50.916Z,-0.01
2023-02-27T19:26:50.943Z,0.00
2023-02-27T19:46:50.920Z,-0.03
2023-02-27T20:06:50.974Z,-0.09
2023-02-27T20:26:50.905Z,-0.01
2023-02-27T20:46:50.954Z,-0.06
2023-02-27T21:06:50.945Z,-0.11
2023-02-27T21:26:50.912Z,-0.05
2023-02-27T21:46:50.932Z,-0.14
2023-02-27T22:06:50.916Z,-0.16
2023-02-27T22:26:50.904Z,-0.13
2023-02-27T22:46:50.960Z,-0.19
2023-02-27T23:06:50.940Z,-0.28
2023-02-27T23:26:50.917Z,-0.36
2023-02-27T23:46:50.915Z,-0.27
